sensor_id;sensor_type;location;lat;lon;timestamp;P1;durP1;ratioP1;P2;durP2;ratioP2
38132;SDS011;23948;43.252;26.572;2023-03-01T00:00:10;13.75;;;8.90;;
38132;SDS011;23948;43.252;26.572;2023-03-01T00:02:55;12.63;;;8.52;;
38132;SDS011;23948;43.252;26.572;2023-03-01T00:05:20;11.35;;;8.07;;
38132;SDS011;23948;43.252;26.572;2023-03-01T00:07:46;12.88;;;9.00;;
38132;SDS011;23948;43.252;26.572;2023-03-01T00:10:11;12.00;;;8.52;;
38132;SDS011;23948;43.252;26.572;2023-03-01T00:12:36;12.80;;;9.05;;
38132;SDS011;23948;43.252;26.572;2023-03-01T00:15:02;11.18;;;8.13;;
38132;SDS011;23948;43.252;26.572;2023-03-01T00:17:28;11.80;;;8.07;;
38132;SDS011;23948;43.252;26.572;2023-03-01T00:19:53;12.25;;;8.60;;
38132;SDS011;23948;43.252;26.572;2023-03-01T00:22:19;11.15;;;7.80;;
38132;SDS011;23948;43.252;26.572;2023-03-01T00:24:44;12.85;;;9.00;;
38132;SDS011;23948;43.252;26.572;2023-03-01T00:27:10;13.63;;;8.95;;
38132;SDS011;23948;43.252;26.572;2023-03-01T00:29:35;12.85;;;8.35;;
38132;SDS011;23948;43.252;26.572;2023-03-01T00:32:01;12.18;;;8.32;;
38132;SDS011;23948;43.252;26.572;2023-03-01T00:34:26;13.40;;;8.82;;
38132;SDS011;23948;43.252;26.572;2023-03-01T00:36:51;12.68;;;9.07;;
38132;SDS011;23948;43.252;26.572;2023-03-01T00:39:16;12.25;;;9.15;;
38132;SDS011;23948;43.252;26.572;2023-03-01T00:41:42;12.07;;;8.63;;
38132;SDS011;23948;43.252;26.572;2023-03-01T00:44:07;13.27;;;8.60;;
38132;SDS011;23948;43.252;26.572;2023-03-01T00:46:33;12.32;;;8.80;;
38132;SDS011;23948;43.252;26.572;2023-03-01T00:48:58;12.80;;;9.20;;
38132;SDS011;23948;43.252;26.572;2023-03-01T00:51:27;13.25;;;8.70;;
38132;SDS011;23948;43.252;26.572;2023-03-01T00:53:54;12.57;;;8.88;;
38132;SDS011;23948;43.252;26.572;2023-03-01T00:56:19;11.50;;;8.02;;
38132;SDS011;23948;43.252;26.572;2023-03-01T00:58:45;14.68;;;8.98;;
38132;SDS011;23948;43.252;26.572;2023-03-01T01:01:11;13.65;;;9.35;;
38132;SDS011;23948;43.252;26.572;2023-03-01T01:03:50;14.50;;;9.48;;
38132;SDS011;23948;43.252;26.572;2023-03-01T01:06:16;12.50;;;9.02;;
38132;SDS011;23948;43.252;26.572;2023-03-01T01:08:42;12.60;;;8.73;;
38132;SDS011;23948;43.252;26.572;2023-03-01T01:11:08;12.55;;;8.43;;
38132;SDS011;23948;43.252;26.572;2023-03-01T01:13:34;11.35;;;8.18;;
38132;SDS011;23948;43.252;26.572;2023-03-01T01:16:02;12.18;;;8.93;;
38132;SDS011;23948;43.252;26.572;2023-03-01T01:18:27;13.18;;;8.85;;
38132;SDS011;23948;43.252;26.572;2023-03-01T01:20:53;12.48;;;8.68;;
38132;SDS011;23948;43.252;26.572;2023-03-01T01:23:18;12.02;;;8.75;;
38132;SDS011;23948;43.252;26.572;2023-03-01T01:25:43;12.48;;;8.80;;
38132;SDS011;23948;43.252;26.572;2023-03-01T01:28:08;12.07;;;8.65;;
38132;SDS011;23948;43.252;26.572;2023-03-01T01:30:34;11.95;;;8.45;;
38132;SDS011;23948;43.252;26.572;2023-03-01T01:32:59;12.85;;;8.88;;
38132;SDS011;23948;43.252;26.572;2023-03-01T01:35:24;14.30;;;9.00;;
38132;SDS011;23948;43.252;26.572;2023-03-01T01:37:49;12.18;;;8.70;;
38132;SDS011;23948;43.252;26.572;2023-03-01T01:40:15;11.82;;;8.63;;
38132;SDS011;23948;43.252;26.572;2023-03-01T01:42:40;11.20;;;7.97;;
38132;SDS011;23948;43.252;26.572;2023-03-01T01:45:26;12.85;;;8.77;;
38132;SDS011;23948;43.252;26.572;2023-03-01T01:47:52;12.27;;;8.05;;
38132;SDS011;23948;43.252;26.572;2023-03-01T01:50:19;12.32;;;8.40;;
38132;SDS011;23948;43.252;26.572;2023-03-01T01:52:45;12.10;;;8.18;;
38132;SDS011;23948;43.252;26.572;2023-03-01T01:55:14;10.45;;;7.57;;
38132;SDS011;23948;43.252;26.572;2023-03-01T01:57:42;11.90;;;7.70;;
38132;SDS011;23948;43.252;26.572;2023-03-01T02:00:22;10.80;;;7.57;;
38132;SDS011;23948;43.252;26.572;2023-03-01T02:02:48;11.27;;;7.10;;
38132;SDS011;23948;43.252;26.572;2023-03-01T02:05:32;10.68;;;7.35;;
38132;SDS011;23948;43.252;26.572;2023-03-01T02:07:59;12.40;;;8.20;;
38132;SDS011;23948;43.252;26.572;2023-03-01T02:10:24;10.55;;;7.05;;
38132;SDS011;23948;43.252;26.572;2023-03-01T02:12:50;11.43;;;6.97;;
38132;SDS011;23948;43.252;26.572;2023-03-01T02:15:16;9.93;;;7.28;;
38132;SDS011;23948;43.252;26.572;2023-03-01T02:17:42;12.52;;;7.40;;
38132;SDS011;23948;43.252;26.572;2023-03-01T02:20:20;9.95;;;6.88;;
38132;SDS011;23948;43.252;26.572;2023-03-01T02:22:48;9.32;;;6.55;;
38132;SDS011;23948;43.252;26.572;2023-03-01T02:30:28;10.45;;;7.03;;
38132;SDS011;23948;43.252;26.572;2023-03-01T02:32:54;9.88;;;6.53;;
38132;SDS011;23948;43.252;26.572;2023-03-01T02:35:27;9.82;;;6.18;;
38132;SDS011;23948;43.252;26.572;2023-03-01T02:37:54;11.63;;;6.88;;
38132;SDS011;23948;43.252;26.572;2023-03-01T02:40:22;10.82;;;6.75;;
38132;SDS011;23948;43.252;26.572;2023-03-01T02:42:51;11.40;;;6.72;;
38132;SDS011;23948;43.252;26.572;2023-03-01T02:45:18;10.38;;;6.80;;
38132;SDS011;23948;43.252;26.572;2023-03-01T02:47:43;12.65;;;7.32;;
38132;SDS011;23948;43.252;26.572;2023-03-01T02:53:06;11.20;;;6.70;;
38132;SDS011;23948;43.252;26.572;2023-03-01T02:55:33;9.52;;;6.32;;
38132;SDS011;23948;43.252;26.572;2023-03-01T02:57:58;10.65;;;7.18;;
38132;SDS011;23948;43.252;26.572;2023-03-01T03:00:28;11.23;;;6.80;;
38132;SDS011;23948;43.252;26.572;2023-03-01T03:02:55;9.80;;;6.72;;
38132;SDS011;23948;43.252;26.572;2023-03-01T03:05:29;9.82;;;6.97;;
38132;SDS011;23948;43.252;26.572;2023-03-01T03:07:54;11.60;;;6.60;;
38132;SDS011;23948;43.252;26.572;2023-03-01T03:12:49;9.88;;;6.40;;
38132;SDS011;23948;43.252;26.572;2023-03-01T03:15:14;10.55;;;7.07;;
38132;SDS011;23948;43.252;26.572;2023-03-01T03:17:40;9.48;;;6.45;;
38132;SDS011;23948;43.252;26.572;2023-03-01T03:20:06;10.15;;;6.40;;
38132;SDS011;23948;43.252;26.572;2023-03-01T03:22:36;8.95;;;6.70;;
38132;SDS011;23948;43.252;26.572;2023-03-01T03:25:01;9.30;;;6.03;;
38132;SDS011;23948;43.252;26.572;2023-03-01T03:27:28;10.55;;;7.00;;
38132;SDS011;23948;43.252;26.572;2023-03-01T03:29:53;9.07;;;6.10;;
38132;SDS011;23948;43.252;26.572;2023-03-01T03:32:18;10.68;;;6.40;;
38132;SDS011;23948;43.252;26.572;2023-03-01T03:34:44;9.50;;;6.43;;
38132;SDS011;23948;43.252;26.572;2023-03-01T03:37:09;9.45;;;6.70;;
38132;SDS011;23948;43.252;26.572;2023-03-01T03:39:54;9.57;;;6.63;;
38132;SDS011;23948;43.252;26.572;2023-03-01T03:42:20;10.75;;;6.75;;
38132;SDS011;23948;43.252;26.572;2023-03-01T03:47:30;9.43;;;6.22;;
38132;SDS011;23948;43.252;26.572;2023-03-01T03:49:55;11.38;;;7.40;;
38132;SDS011;23948;43.252;26.572;2023-03-01T03:52:20;8.38;;;5.97;;
38132;SDS011;23948;43.252;26.572;2023-03-01T03:54:45;9.02;;;6.38;;
38132;SDS011;23948;43.252;26.572;2023-03-01T03:57:11;9.23;;;6.13;;
38132;SDS011;23948;43.252;26.572;2023-03-01T03:59:36;9.27;;;6.38;;
38132;SDS011;23948;43.252;26.572;2023-03-01T04:02:01;10.02;;;6.97;;
38132;SDS011;23948;43.252;26.572;2023-03-01T04:04:26;8.82;;;5.97;;
38132;SDS011;23948;43.252;26.572;2023-03-01T04:06:52;9.15;;;6.60;;
38132;SDS011;23948;43.252;26.572;2023-03-01T04:09:17;10.70;;;6.65;;
38132;SDS011;23948;43.252;26.572;2023-03-01T04:11:42;9.85;;;6.43;;
38132;SDS011;23948;43.252;26.572;2023-03-01T04:14:07;10.80;;;6.72;;
38132;SDS011;23948;43.252;26.572;2023-03-01T04:16:33;10.05;;;6.45;;
38132;SDS011;23948;43.252;26.572;2023-03-01T04:18:58;10.55;;;6.80;;
38132;SDS011;23948;43.252;26.572;2023-03-01T04:21:25;12.70;;;8.30;;
38132;SDS011;23948;43.252;26.572;2023-03-01T04:23:50;11.52;;;8.13;;
38132;SDS011;23948;43.252;26.572;2023-03-01T04:26:17;11.88;;;8.57;;
38132;SDS011;23948;43.252;26.572;2023-03-01T04:28:43;12.88;;;8.07;;
38132;SDS011;23948;43.252;26.572;2023-03-01T04:31:14;13.15;;;7.93;;
38132;SDS011;23948;43.252;26.572;2023-03-01T04:36:12;13.88;;;8.68;;
38132;SDS011;23948;43.252;26.572;2023-03-01T04:38:38;16.30;;;8.77;;
38132;SDS011;23948;43.252;26.572;2023-03-01T04:41:07;12.73;;;8.50;;
38132;SDS011;23948;43.252;26.572;2023-03-01T04:43:33;15.20;;;8.43;;
38132;SDS011;23948;43.252;26.572;2023-03-01T04:46:02;13.40;;;8.27;;
38132;SDS011;23948;43.252;26.572;2023-03-01T04:48:28;12.77;;;8.35;;
38132;SDS011;23948;43.252;26.572;2023-03-01T04:50:53;14.65;;;8.35;;
38132;SDS011;23948;43.252;26.572;2023-03-01T04:53:18;14.55;;;9.32;;
38132;SDS011;23948;43.252;26.572;2023-03-01T04:55:44;15.23;;;9.80;;
38132;SDS011;23948;43.252;26.572;2023-03-01T04:58:09;14.50;;;9.93;;
38132;SDS011;23948;43.252;26.572;2023-03-01T05:00:34;14.02;;;8.82;;
38132;SDS011;23948;43.252;26.572;2023-03-01T05:03:00;15.02;;;9.45;;
38132;SDS011;23948;43.252;26.572;2023-03-01T05:05:27;17.20;;;10.23;;
38132;SDS011;23948;43.252;26.572;2023-03-01T05:07:53;13.95;;;9.75;;
38132;SDS011;23948;43.252;26.572;2023-03-01T05:10:18;15.45;;;10.00;;
38132;SDS011;23948;43.252;26.572;2023-03-01T05:12:44;15.32;;;9.43;;
38132;SDS011;23948;43.252;26.572;2023-03-01T05:15:09;15.18;;;10.13;;
38132;SDS011;23948;43.252;26.572;2023-03-01T05:17:34;15.68;;;9.88;;
38132;SDS011;23948;43.252;26.572;2023-03-01T05:20:00;15.85;;;9.60;;
38132;SDS011;23948;43.252;26.572;2023-03-01T05:22:26;20.80;;;11.75;;
38132;SDS011;23948;43.252;26.572;2023-03-01T05:24:51;19.23;;;13.55;;
38132;SDS011;23948;43.252;26.572;2023-03-01T05:27:19;25.20;;;15.25;;
38132;SDS011;23948;43.252;26.572;2023-03-01T05:29:47;17.42;;;11.75;;
38132;SDS011;23948;43.252;26.572;2023-03-01T05:32:12;22.63;;;13.43;;
38132;SDS011;23948;43.252;26.572;2023-03-01T05:34:40;19.05;;;11.35;;
38132;SDS011;23948;43.252;26.572;2023-03-01T05:37:06;18.67;;;12.75;;
38132;SDS011;23948;43.252;26.572;2023-03-01T05:39:32;25.08;;;15.90;;
38132;SDS011;23948;43.252;26.572;2023-03-01T05:41:58;19.10;;;11.20;;
38132;SDS011;23948;43.252;26.572;2023-03-01T05:44:24;25.33;;;13.45;;
38132;SDS011;23948;43.252;26.572;2023-03-01T05:46:50;21.95;;;13.07;;
38132;SDS011;23948;43.252;26.572;2023-03-01T05:49:15;20.88;;;12.95;;
38132;SDS011;23948;43.252;26.572;2023-03-01T05:51:41;19.52;;;13.38;;
38132;SDS011;23948;43.252;26.572;2023-03-01T05:54:07;28.75;;;17.52;;
38132;SDS011;23948;43.252;26.572;2023-03-01T05:56:33;19.20;;;12.43;;
38132;SDS011;23948;43.252;26.572;2023-03-01T05:58:59;21.63;;;13.80;;
38132;SDS011;23948;43.252;26.572;2023-03-01T06:01:25;29.95;;;21.23;;
38132;SDS011;23948;43.252;26.572;2023-03-01T06:03:50;22.02;;;15.90;;
38132;SDS011;23948;43.252;26.572;2023-03-01T06:06:15;24.42;;;15.05;;
38132;SDS011;23948;43.252;26.572;2023-03-01T06:08:40;17.80;;;11.80;;
38132;SDS011;23948;43.252;26.572;2023-03-01T06:11:06;30.95;;;18.60;;
38132;SDS011;23948;43.252;26.572;2023-03-01T06:13:32;25.15;;;15.27;;
38132;SDS011;23948;43.252;26.572;2023-03-01T06:15:57;30.67;;;18.45;;
38132;SDS011;23948;43.252;26.572;2023-03-01T06:18:23;22.73;;;12.68;;
38132;SDS011;23948;43.252;26.572;2023-03-01T06:20:57;29.20;;;19.00;;
38132;SDS011;23948;43.252;26.572;2023-03-01T06:23:23;36.58;;;22.70;;
38132;SDS011;23948;43.252;26.572;2023-03-01T06:25:48;40.35;;;24.13;;
38132;SDS011;23948;43.252;26.572;2023-03-01T06:28:13;18.75;;;13.13;;
38132;SDS011;23948;43.252;26.572;2023-03-01T06:30:39;24.80;;;16.08;;
38132;SDS011;23948;43.252;26.572;2023-03-01T06:33:04;22.45;;;15.50;;
38132;SDS011;23948;43.252;26.572;2023-03-01T06:35:29;31.95;;;23.88;;
38132;SDS011;23948;43.252;26.572;2023-03-01T06:37:55;16.20;;;11.60;;
38132;SDS011;23948;43.252;26.572;2023-03-01T06:40:21;17.55;;;10.95;;
38132;SDS011;23948;43.252;26.572;2023-03-01T06:42:50;16.33;;;11.73;;
38132;SDS011;23948;43.252;26.572;2023-03-01T06:45:16;17.35;;;11.70;;
38132;SDS011;23948;43.252;26.572;2023-03-01T06:47:43;23.70;;;14.82;;
38132;SDS011;23948;43.252;26.572;2023-03-01T06:50:08;23.05;;;15.15;;
38132;SDS011;23948;43.252;26.572;2023-03-01T06:52:34;19.85;;;13.73;;
38132;SDS011;23948;43.252;26.572;2023-03-01T06:54:59;20.50;;;14.90;;
38132;SDS011;23948;43.252;26.572;2023-03-01T06:57:24;23.38;;;14.38;;
38132;SDS011;23948;43.252;26.572;2023-03-01T06:59:50;19.05;;;12.60;;
38132;SDS011;23948;43.252;26.572;2023-03-01T07:02:15;29.23;;;19.42;;
38132;SDS011;23948;43.252;26.572;2023-03-01T07:04:41;21.45;;;17.48;;
38132;SDS011;23948;43.252;26.572;2023-03-01T07:07:06;21.10;;;14.73;;
38132;SDS011;23948;43.252;26.572;2023-03-01T07:09:32;22.95;;;15.43;;
38132;SDS011;23948;43.252;26.572;2023-03-01T07:11:57;22.33;;;17.65;;
38132;SDS011;23948;43.252;26.572;2023-03-01T07:14:23;33.25;;;23.50;;
38132;SDS011;23948;43.252;26.572;2023-03-01T07:16:51;32.50;;;21.58;;
38132;SDS011;23948;43.252;26.572;2023-03-01T07:19:17;20.17;;;13.82;;
38132;SDS011;23948;43.252;26.572;2023-03-01T07:21:43;24.33;;;19.90;;
38132;SDS011;23948;43.252;26.572;2023-03-01T07:24:08;24.50;;;18.00;;
38132;SDS011;23948;43.252;26.572;2023-03-01T07:26:34;22.02;;;14.52;;
38132;SDS011;23948;43.252;26.572;2023-03-01T07:29:00;25.42;;;18.63;;
38132;SDS011;23948;43.252;26.572;2023-03-01T07:31:25;25.92;;;16.38;;
38132;SDS011;23948;43.252;26.572;2023-03-01T07:33:53;27.02;;;17.85;;
38132;SDS011;23948;43.252;26.572;2023-03-01T07:36:18;22.23;;;15.75;;
38132;SDS011;23948;43.252;26.572;2023-03-01T07:38:43;21.65;;;17.42;;
38132;SDS011;23948;43.252;26.572;2023-03-01T07:41:08;20.38;;;15.55;;
38132;SDS011;23948;43.252;26.572;2023-03-01T07:43:34;19.25;;;14.02;;
38132;SDS011;23948;43.252;26.572;2023-03-01T07:46:00;24.10;;;15.35;;
38132;SDS011;23948;43.252;26.572;2023-03-01T07:48:25;29.85;;;19.77;;
38132;SDS011;23948;43.252;26.572;2023-03-01T07:50:51;21.17;;;14.68;;
38132;SDS011;23948;43.252;26.572;2023-03-01T07:53:16;22.65;;;15.32;;
38132;SDS011;23948;43.252;26.572;2023-03-01T07:55:41;31.27;;;18.98;;
38132;SDS011;23948;43.252;26.572;2023-03-01T07:58:06;22.17;;;14.85;;
38132;SDS011;23948;43.252;26.572;2023-03-01T08:00:32;25.95;;;15.43;;
38132;SDS011;23948;43.252;26.572;2023-03-01T08:03:00;22.80;;;14.52;;
38132;SDS011;23948;43.252;26.572;2023-03-01T08:05:26;22.48;;;14.75;;
38132;SDS011;23948;43.252;26.572;2023-03-01T08:07:51;30.55;;;19.92;;
38132;SDS011;23948;43.252;26.572;2023-03-01T08:10:16;21.13;;;14.95;;
38132;SDS011;23948;43.252;26.572;2023-03-01T08:12:42;25.50;;;15.98;;
38132;SDS011;23948;43.252;26.572;2023-03-01T08:15:07;30.27;;;18.25;;
38132;SDS011;23948;43.252;26.572;2023-03-01T08:17:33;28.30;;;18.25;;
38132;SDS011;23948;43.252;26.572;2023-03-01T08:19:58;30.05;;;21.10;;
38132;SDS011;23948;43.252;26.572;2023-03-01T08:22:24;32.50;;;22.02;;
38132;SDS011;23948;43.252;26.572;2023-03-01T08:24:49;28.60;;;18.58;;
38132;SDS011;23948;43.252;26.572;2023-03-01T08:27:15;24.73;;;18.00;;
38132;SDS011;23948;43.252;26.572;2023-03-01T08:29:40;24.23;;;17.73;;
38132;SDS011;23948;43.252;26.572;2023-03-01T08:32:05;27.02;;;18.92;;
38132;SDS011;23948;43.252;26.572;2023-03-01T08:34:31;24.90;;;17.15;;
38132;SDS011;23948;43.252;26.572;2023-03-01T08:36:56;26.38;;;16.77;;
38132;SDS011;23948;43.252;26.572;2023-03-01T08:39:21;35.63;;;20.85;;
38132;SDS011;23948;43.252;26.572;2023-03-01T08:41:47;33.53;;;20.10;;
38132;SDS011;23948;43.252;26.572;2023-03-01T08:44:13;29.98;;;21.20;;
38132;SDS011;23948;43.252;26.572;2023-03-01T08:46:39;32.72;;;23.27;;
38132;SDS011;23948;43.252;26.572;2023-03-01T08:49:06;35.63;;;27.70;;
38132;SDS011;23948;43.252;26.572;2023-03-01T08:51:32;30.17;;;20.73;;
38132;SDS011;23948;43.252;26.572;2023-03-01T08:54:01;29.95;;;22.77;;
38132;SDS011;23948;43.252;26.572;2023-03-01T08:56:27;28.95;;;19.33;;
38132;SDS011;23948;43.252;26.572;2023-03-01T08:58:52;30.33;;;18.70;;
38132;SDS011;23948;43.252;26.572;2023-03-01T09:01:18;31.65;;;19.23;;
38132;SDS011;23948;43.252;26.572;2023-03-01T09:03:44;29.40;;;19.85;;
38132;SDS011;23948;43.252;26.572;2023-03-01T09:06:09;28.02;;;19.33;;
38132;SDS011;23948;43.252;26.572;2023-03-01T09:08:35;35.22;;;22.77;;
38132;SDS011;23948;43.252;26.572;2023-03-01T09:11:02;32.78;;;20.05;;
38132;SDS011;23948;43.252;26.572;2023-03-01T09:13:27;32.92;;;19.98;;
38132;SDS011;23948;43.252;26.572;2023-03-01T09:15:56;31.40;;;21.20;;
38132;SDS011;23948;43.252;26.572;2023-03-01T09:18:21;32.15;;;20.80;;
38132;SDS011;23948;43.252;26.572;2023-03-01T09:20:46;26.23;;;18.27;;
38132;SDS011;23948;43.252;26.572;2023-03-01T09:23:11;38.80;;;22.45;;
38132;SDS011;23948;43.252;26.572;2023-03-01T09:25:37;32.55;;;24.42;;
38132;SDS011;23948;43.252;26.572;2023-03-01T09:28:02;34.78;;;22.98;;
38132;SDS011;23948;43.252;26.572;2023-03-01T09:30:28;34.92;;;21.33;;
38132;SDS011;23948;43.252;26.572;2023-03-01T09:32:55;43.63;;;28.15;;
38132;SDS011;23948;43.252;26.572;2023-03-01T09:35:21;32.55;;;21.75;;
38132;SDS011;23948;43.252;26.572;2023-03-01T09:37:47;26.33;;;17.85;;
38132;SDS011;23948;43.252;26.572;2023-03-01T09:40:15;38.25;;;26.02;;
38132;SDS011;23948;43.252;26.572;2023-03-01T09:42:49;27.50;;;18.00;;
38132;SDS011;23948;43.252;26.572;2023-03-01T09:45:20;26.88;;;17.55;;
38132;SDS011;23948;43.252;26.572;2023-03-01T09:47:48;25.20;;;17.63;;
38132;SDS011;23948;43.252;26.572;2023-03-01T09:50:20;25.67;;;15.70;;
38132;SDS011;23948;43.252;26.572;2023-03-01T09:52:48;28.05;;;22.20;;
38132;SDS011;23948;43.252;26.572;2023-03-01T09:55:16;26.98;;;18.05;;
38132;SDS011;23948;43.252;26.572;2023-03-01T10:00:22;29.17;;;19.17;;
38132;SDS011;23948;43.252;26.572;2023-03-01T10:10:44;30.80;;;20.08;;
38132;SDS011;23948;43.252;26.572;2023-03-01T10:15:41;28.88;;;19.23;;
38132;SDS011;23948;43.252;26.572;2023-03-01T10:18:18;25.58;;;17.40;;
38132;SDS011;23948;43.252;26.572;2023-03-01T10:23:09;30.60;;;19.35;;
38132;SDS011;23948;43.252;26.572;2023-03-01T10:30:52;36.13;;;23.80;;
38132;SDS011;23948;43.252;26.572;2023-03-01T10:33:21;34.38;;;23.35;;
38132;SDS011;23948;43.252;26.572;2023-03-01T10:35:48;28.73;;;19.73;;
38132;SDS011;23948;43.252;26.572;2023-03-01T10:38:14;32.08;;;22.48;;
38132;SDS011;23948;43.252;26.572;2023-03-01T10:43:43;25.75;;;17.77;;
38132;SDS011;23948;43.252;26.572;2023-03-01T10:51:32;30.27;;;19.35;;
38132;SDS011;23948;43.252;26.572;2023-03-01T10:53:57;28.55;;;19.38;;
38132;SDS011;23948;43.252;26.572;2023-03-01T10:56:22;28.20;;;16.88;;
38132;SDS011;23948;43.252;26.572;2023-03-01T10:59:00;26.30;;;16.13;;
38132;SDS011;23948;43.252;26.572;2023-03-01T11:01:27;24.92;;;15.77;;
38132;SDS011;23948;43.252;26.572;2023-03-01T11:04:08;28.20;;;17.50;;
38132;SDS011;23948;43.252;26.572;2023-03-01T11:06:35;36.05;;;25.48;;
38132;SDS011;23948;43.252;26.572;2023-03-01T11:11:38;30.02;;;21.35;;
38132;SDS011;23948;43.252;26.572;2023-03-01T11:14:07;26.60;;;18.73;;
38132;SDS011;23948;43.252;26.572;2023-03-01T11:16:38;26.85;;;17.45;;
38132;SDS011;23948;43.252;26.572;2023-03-01T11:21:36;24.85;;;17.90;;
38132;SDS011;23948;43.252;26.572;2023-03-01T11:24:03;27.48;;;17.52;;
38132;SDS011;23948;43.252;26.572;2023-03-01T11:26:29;27.10;;;18.17;;
38132;SDS011;23948;43.252;26.572;2023-03-01T11:28:57;23.50;;;16.75;;
38132;SDS011;23948;43.252;26.572;2023-03-01T11:31:25;26.52;;;18.77;;
38132;SDS011;23948;43.252;26.572;2023-03-01T11:38:47;25.58;;;18.48;;
38132;SDS011;23948;43.252;26.572;2023-03-01T11:41:14;26.55;;;17.77;;
38132;SDS011;23948;43.252;26.572;2023-03-01T11:43:53;25.08;;;16.83;;
38132;SDS011;23948;43.252;26.572;2023-03-01T11:54:06;31.27;;;19.67;;
38132;SDS011;23948;43.252;26.572;2023-03-01T11:56:35;29.27;;;17.40;;
38132;SDS011;23948;43.252;26.572;2023-03-01T12:06:36;33.92;;;22.10;;
38132;SDS011;23948;43.252;26.572;2023-03-01T12:27:00;30.38;;;18.67;;
38132;SDS011;23948;43.252;26.572;2023-03-01T12:36:54;34.17;;;21.50;;
38132;SDS011;23948;43.252;26.572;2023-03-01T12:42:04;34.95;;;22.90;;
38132;SDS011;23948;43.252;26.572;2023-03-01T12:47:39;44.03;;;27.80;;
38132;SDS011;23948;43.252;26.572;2023-03-01T12:50:20;47.60;;;28.42;;
38132;SDS011;23948;43.252;26.572;2023-03-01T12:55:19;34.55;;;21.45;;
38132;SDS011;23948;43.252;26.572;2023-03-01T12:57:49;35.08;;;21.40;;
38132;SDS011;23948;43.252;26.572;2023-03-01T13:03:00;33.58;;;21.83;;
38132;SDS011;23948;43.252;26.572;2023-03-01T13:17:49;56.40;;;35.03;;
38132;SDS011;23948;43.252;26.572;2023-03-01T13:20:19;101.35;;;54.42;;
38132;SDS011;23948;43.252;26.572;2023-03-01T13:22:45;52.95;;;30.77;;
38132;SDS011;23948;43.252;26.572;2023-03-01T13:25:12;44.63;;;27.63;;
38132;SDS011;23948;43.252;26.572;2023-03-01T13:27:38;44.53;;;28.08;;
38132;SDS011;23948;43.252;26.572;2023-03-01T13:30:03;43.95;;;25.42;;
38132;SDS011;23948;43.252;26.572;2023-03-01T13:32:34;38.47;;;23.83;;
38132;SDS011;23948;43.252;26.572;2023-03-01T13:37:35;43.15;;;28.15;;
38132;SDS011;23948;43.252;26.572;2023-03-01T13:40:04;39.05;;;25.95;;
38132;SDS011;23948;43.252;26.572;2023-03-01T13:42:34;37.55;;;26.92;;
38132;SDS011;23948;43.252;26.572;2023-03-01T13:45:02;41.28;;;27.45;;
38132;SDS011;23948;43.252;26.572;2023-03-01T13:47:28;45.15;;;29.60;;
38132;SDS011;23948;43.252;26.572;2023-03-01T13:50:00;37.72;;;25.50;;
38132;SDS011;23948;43.252;26.572;2023-03-01T13:57:38;41.80;;;25.40;;
38132;SDS011;23948;43.252;26.572;2023-03-01T14:00:07;38.67;;;24.65;;
38132;SDS011;23948;43.252;26.572;2023-03-01T14:02:33;46.40;;;27.25;;
38132;SDS011;23948;43.252;26.572;2023-03-01T14:04:59;42.38;;;27.58;;
38132;SDS011;23948;43.252;26.572;2023-03-01T14:07:25;49.10;;;26.35;;
38132;SDS011;23948;43.252;26.572;2023-03-01T14:09:52;48.75;;;31.90;;
38132;SDS011;23948;43.252;26.572;2023-03-01T14:14:59;57.35;;;30.65;;
38132;SDS011;23948;43.252;26.572;2023-03-01T14:17:35;125.60;;;73.80;;
38132;SDS011;23948;43.252;26.572;2023-03-01T14:22:58;55.85;;;31.98;;
38132;SDS011;23948;43.252;26.572;2023-03-01T14:25:26;51.25;;;28.35;;
38132;SDS011;23948;43.252;26.572;2023-03-01T14:28:02;46.33;;;26.58;;
38132;SDS011;23948;43.252;26.572;2023-03-01T14:30:36;47.83;;;24.90;;
38132;SDS011;23948;43.252;26.572;2023-03-01T14:33:04;43.22;;;29.42;;
38132;SDS011;23948;43.252;26.572;2023-03-01T14:35:32;49.10;;;28.40;;
38132;SDS011;23948;43.252;26.572;2023-03-01T14:37:57;78.40;;;51.25;;
38132;SDS011;23948;43.252;26.572;2023-03-01T14:42:51;52.85;;;31.75;;
38132;SDS011;23948;43.252;26.572;2023-03-01T14:45:17;49.15;;;27.45;;
38132;SDS011;23948;43.252;26.572;2023-03-01T14:47:43;58.17;;;32.63;;
38132;SDS011;23948;43.252;26.572;2023-03-01T14:50:20;68.88;;;36.17;;
38132;SDS011;23948;43.252;26.572;2023-03-01T14:52:46;69.55;;;38.58;;
38132;SDS011;23948;43.252;26.572;2023-03-01T14:55:15;66.68;;;35.95;;
38132;SDS011;23948;43.252;26.572;2023-03-01T14:57:46;58.53;;;35.88;;
38132;SDS011;23948;43.252;26.572;2023-03-01T15:02:37;42.33;;;23.92;;
38132;SDS011;23948;43.252;26.572;2023-03-01T15:05:04;39.83;;;22.75;;
38132;SDS011;23948;43.252;26.572;2023-03-01T15:07:33;44.15;;;25.90;;
38132;SDS011;23948;43.252;26.572;2023-03-01T15:09:59;45.08;;;26.20;;
38132;SDS011;23948;43.252;26.572;2023-03-01T15:14:54;41.50;;;24.63;;
38132;SDS011;23948;43.252;26.572;2023-03-01T15:17:20;39.45;;;24.42;;
38132;SDS011;23948;43.252;26.572;2023-03-01T15:19:47;39.70;;;25.85;;
38132;SDS011;23948;43.252;26.572;2023-03-01T15:22:15;50.60;;;28.38;;
38132;SDS011;23948;43.252;26.572;2023-03-01T15:24:41;39.53;;;23.48;;
38132;SDS011;23948;43.252;26.572;2023-03-01T15:27:17;65.82;;;42.40;;
38132;SDS011;23948;43.252;26.572;2023-03-01T15:29:48;78.80;;;40.92;;
38132;SDS011;23948;43.252;26.572;2023-03-01T15:32:30;63.10;;;36.25;;
38132;SDS011;23948;43.252;26.572;2023-03-01T15:34:59;112.75;;;59.80;;
38132;SDS011;23948;43.252;26.572;2023-03-01T15:40:02;115.63;;;56.72;;
38132;SDS011;23948;43.252;26.572;2023-03-01T15:47:35;57.70;;;35.15;;
38132;SDS011;23948;43.252;26.572;2023-03-01T15:50:00;36.83;;;24.10;;
38132;SDS011;23948;43.252;26.572;2023-03-01T15:52:32;39.45;;;26.40;;
38132;SDS011;23948;43.252;26.572;2023-03-01T15:55:02;45.28;;;28.38;;
38132;SDS011;23948;43.252;26.572;2023-03-01T15:57:28;53.08;;;33.67;;
38132;SDS011;23948;43.252;26.572;2023-03-01T15:59:54;49.28;;;31.02;;
38132;SDS011;23948;43.252;26.572;2023-03-01T16:02:19;90.70;;;51.00;;
38132;SDS011;23948;43.252;26.572;2023-03-01T16:04:46;56.70;;;34.47;;
38132;SDS011;23948;43.252;26.572;2023-03-01T16:07:11;47.03;;;28.17;;
38132;SDS011;23948;43.252;26.572;2023-03-01T16:09:36;55.97;;;34.35;;
38132;SDS011;23948;43.252;26.572;2023-03-01T16:12:02;43.45;;;28.90;;
38132;SDS011;23948;43.252;26.572;2023-03-01T16:14:27;53.10;;;33.50;;
38132;SDS011;23948;43.252;26.572;2023-03-01T16:16:53;52.47;;;34.88;;
38132;SDS011;23948;43.252;26.572;2023-03-01T16:19:18;41.42;;;29.23;;
38132;SDS011;23948;43.252;26.572;2023-03-01T16:21:43;48.88;;;32.63;;
38132;SDS011;23948;43.252;26.572;2023-03-01T16:24:11;51.55;;;33.97;;
38132;SDS011;23948;43.252;26.572;2023-03-01T16:26:37;40.95;;;27.75;;
38132;SDS011;23948;43.252;26.572;2023-03-01T16:29:02;43.58;;;28.48;;
38132;SDS011;23948;43.252;26.572;2023-03-01T16:31:28;42.95;;;27.60;;
38132;SDS011;23948;43.252;26.572;2023-03-01T16:33:57;80.07;;;46.65;;
38132;SDS011;23948;43.252;26.572;2023-03-01T16:36:23;60.78;;;39.35;;
38132;SDS011;23948;43.252;26.572;2023-03-01T16:38:49;56.33;;;34.67;;